Lamar — WDE7053 — position and weather

sailwx.info

Track history (hours):
 
Tides and Currents Weather Stations Pressure Air Temp Water Temp Dewpoint Dewpoint Depression Visibility Wind Speed Wind Dir Waves Ship Positions

Lamar

Owner: G & H Towing Company, Galveston, TX. More information available from US FCC via Universal Licensing System and Coast Guard Vessel Documentation Center.

Last reported at 2018-Jul-19 22:59 UTC. Time now 2018-Jul-19 23:05 UTC.
Position N 29°37' W 095°00'.

Length 30 m; draft 6.5 m.

Type: Tug. MMSI: 367388340.

Date/timePositionNaut miles runAvg speedWind from/ knotsBaromVisibWave heightAir tempDewpointWater temp
2018-Jul-19 22:59N 29°37' W 095°00'3 6.4
2018-Jul-19 22:30N 29°40' W 094°58'4 0.7
2018-Jul-19 17:33N 29°42' W 095°01'0 5.4
2018-Jul-19 17:30N 29°42' W 095°01'2 2.5
2018-Jul-19 16:42N 29°44' W 095°03'2 7.1
2018-Jul-19 16:28N 29°43' W 095°01'1 0.8
2018-Jul-19 15:33N 29°42' W 095°01'0 3.5
2018-Jul-19 15:30N 29°42' W 095°01'2 2.9
2018-Jul-19 14:59N 29°41' W 095°00'1 0.6
2018-Jul-19 14:00N 29°41' W 094°60'1 2.8
2018-Jul-19 13:29N 29°40' W 094°58'1 2.3
2018-Jul-19 12:58N 29°41' W 094°59'0 0.0
2018-Jul-19 12:19N 29°41' W 094°59'0 0.0
2018-Jul-19 11:43N 29°41' W 094°59'0 0.0
2018-Jul-19 11:25N 29°41' W 094°59'0 0.0
2018-Jul-19 10:58N 29°41' W 094°59'0 0.0
2018-Jul-19 10:16N 29°41' W 094°59'0 0.0
2018-Jul-19 09:58N 29°41' W 094°59'0 0.0
2018-Jul-19 09:28N 29°41' W 094°59'0 0.0
2018-Jul-19 08:58N 29°41' W 094°59'0 0.0
2018-Jul-19 08:25N 29°41' W 094°59'0 0.0
2018-Jul-19 07:58N 29°41' W 094°59'0 0.0
2018-Jul-19 07:28N 29°41' W 094°59'0 0.0
2018-Jul-19 06:43N 29°41' W 094°59'0 0.0
2018-Jul-19 06:25N 29°41' W 094°59'0 0.0
2018-Jul-19 05:55N 29°41' W 094°59'0 0.0
2018-Jul-19 05:28N 29°41' W 094°59'0 0.0
2018-Jul-19 05:00N 29°41' W 094°59'0 0.6
2018-Jul-19 04:31N 29°41' W 094°59'0 0.4
2018-Jul-19 04:00N 29°41' W 094°59'2 4.3
2018-Jul-19 03:30N 29°39' W 094°58'2 3.6
2018-Jul-19 02:55N 29°41' W 094°60'0 0.0
2018-Jul-19 02:25N 29°41' W 094°60'0 0.0
2018-Jul-19 01:58N 29°41' W 094°60'0 0.0
2018-Jul-19 01:28N 29°41' W 094°60'0 0.0
2018-Jul-19 00:58N 29°41' W 094°60'0 0.0
2018-Jul-19 00:28N 29°41' W 094°60'0 0.0
2018-Jul-18 23:38N 29°41' W 094°60'0 1.2
2018-Jul-18 23:27N 29°41' W 094°60'0 0.3
2018-Jul-18 22:59N 29°41' W 094°60'1 2.4
2018-Jul-18 22:30N 29°40' W 094°59'1 0.5
2018-Jul-18 20:50N 29°41' W 094°59'2 4.4
2018-Jul-18 20:25N 29°42' W 095°01'2 5.5
2018-Jul-18 19:59N 29°44' W 095°03'4 3.7
2018-Jul-18 18:49N 29°44' W 095°08'0 0.1
2018-Jul-18 17:32N 29°44' W 095°07'0 8.7
2018-Jul-18 17:29N 29°44' W 095°07'3 5.7
2018-Jul-18 16:57N 29°44' W 095°03'3 7.1
2018-Jul-18 16:30N 29°42' W 095°01'2 0.8
2018-Jul-18 14:12N 29°41' W 094°59'2 3.0
2018-Jul-18 13:29N 29°42' W 095°01'2 3.8
2018-Jul-18 12:55N 29°41' W 094°59'0 0.0
2018-Jul-18 12:04N 29°41' W 094°59'0 0.0
2018-Jul-18 11:43N 29°41' W 094°59'0 0.0
2018-Jul-18 11:28N 29°41' W 094°59'0 0.0
2018-Jul-18 10:13N 29°41' W 094°59'0 0.0
2018-Jul-18 09:52N 29°41' W 094°59'0 0.0
2018-Jul-18 09:25N 29°41' W 094°59'0 0.0
2018-Jul-18 08:49N 29°41' W 094°59'0 0.0
2018-Jul-18 08:28N 29°41' W 094°59'0 0.0
2018-Jul-18 07:58N 29°41' W 094°59'0 0.2
2018-Jul-18 07:30N 29°41' W 094°59'1 1.9
2018-Jul-18 07:01N 29°41' W 095°00'1 2.2
2018-Jul-18 06:30N 29°42' W 095°00'1 1.8
2018-Jul-18 06:00N 29°42' W 095°01'0 0.0
2018-Jul-18 05:30N 29°42' W 095°01'0 0.0
2018-Jul-18 05:00N 29°42' W 095°01'0 0.0
2018-Jul-18 04:30N 29°42' W 095°01'0 0.0
2018-Jul-18 04:00N 29°42' W 095°01'0 0.0
2018-Jul-18 03:30N 29°42' W 095°01'0 0.0
2018-Jul-18 03:00N 29°42' W 095°01'0 0.0
2018-Jul-18 02:27N 29°42' W 095°01'0 0.0
2018-Jul-18 01:54N 29°42' W 095°01'0 0.0
2018-Jul-18 01:30N 29°42' W 095°01'2 2.1
2018-Jul-18 00:24N 29°44' W 095°03'3 7.3
2018-Jul-18 00:00N 29°42' W 095°01'1 2.6
2018-Jul-17 23:30N 29°41' W 094°60'0 0.1
2018-Jul-17 23:00N 29°41' W 094°60'0 0.0
2018-Jul-17 22:30N 29°41' W 094°60'5 6.5
2018-Jul-17 21:44N 29°45' W 095°04'3 0.8
2018-Jul-17 17:24N 29°44' W 095°07'1 3.4
2018-Jul-17 17:00N 29°45' W 095°06'2 4.0
2018-Jul-17 16:26N 29°44' W 095°03'2 5.5
2018-Jul-17 15:59N 29°43' W 095°01'3 6.8
2018-Jul-17 15:30N 29°41' W 094°59'3 4.3
2018-Jul-17 14:53N 29°42' W 095°01'0 0.1
2018-Jul-17 14:26N 29°42' W 095°01'0 0.0
2018-Jul-17 13:59N 29°42' W 095°01'0 0.0
2018-Jul-17 13:26N 29°42' W 095°01'0 0.0
2018-Jul-17 12:59N 29°42' W 095°01'0 0.0
2018-Jul-17 12:26N 29°42' W 095°01'0 0.0
2018-Jul-17 11:56N 29°42' W 095°01'0 0.0
2018-Jul-17 11:29N 29°42' W 095°01'0 0.0
2018-Jul-17 10:59N 29°42' W 095°01'0 0.0
2018-Jul-17 10:29N 29°42' W 095°01'0 0.0
2018-Jul-17 09:59N 29°42' W 095°01'0 0.0
2018-Jul-17 09:26N 29°42' W 095°01'0 0.0
2018-Jul-17 08:59N 29°42' W 095°01'0 0.0
2018-Jul-17 08:29N 29°42' W 095°01'0 0.0
2018-Jul-17 07:59N 29°42' W 095°01'0 0.0
2018-Jul-17 07:29N 29°42' W 095°01'0 0.0
2018-Jul-17 06:59N 29°42' W 095°01'0 0.0
2018-Jul-17 06:29N 29°42' W 095°01'0 0.0
2018-Jul-17 05:56N 29°42' W 095°01'0 0.0
2018-Jul-17 05:29N 29°42' W 095°01'0 0.0
2018-Jul-17 04:58N 29°42' W 095°01'2 5.2
2018-Jul-17 04:30N 29°41' W 094°59'1 2.7
2018-Jul-17 04:00N 29°41' W 095°00'1 1.8
2018-Jul-17 03:30N 29°41' W 094°59'0 0.7
2018-Jul-17 03:01N 29°41' W 094°59'1 1.3
2018-Jul-17 02:28N 29°40' W 094°59'1 1.3
2018-Jul-17 01:59N 29°41' W 094°59'0 0.0
2018-Jul-17 01:26N 29°41' W 094°59'0 0.0
2018-Jul-17 00:20N 29°41' W 094°59'0 0.0
2018-Jul-16 23:14N 29°41' W 094°59'0 0.0
2018-Jul-16 22:53N 29°41' W 094°59'0 0.0
2018-Jul-16 22:26N 29°41' W 094°59'0 0.0
2018-Jul-16 21:59N 29°41' W 094°59'3 1.4
2018-Jul-16 20:07N 29°43' W 095°01'1 5.3
2018-Jul-16 20:01N 29°42' W 095°01'0 0.2
2018-Jul-16 19:25N 29°42' W 095°01'0 0.0
2018-Jul-16 18:58N 29°42' W 095°01'0 0.1
2018-Jul-16 18:30N 29°42' W 095°01'5 1.3
2018-Jul-16 14:43N 29°45' W 095°06'2 7.2
2018-Jul-16 14:23N 29°44' W 095°03'3 7.9
2018-Jul-16 14:00N 29°42' W 095°01'1 2.4
2018-Jul-16 13:26N 29°41' W 095°00'0 0.1
2018-Jul-16 13:00N 29°41' W 095°00'1 2.8
2018-Jul-16 12:30N 29°41' W 094°59'1 2.0
2018-Jul-16 12:00N 29°41' W 094°60'0 0.0
2018-Jul-16 11:24N 29°41' W 094°60'0 0.1
2018-Jul-16 10:59N 29°41' W 094°60'1 1.2
2018-Jul-16 10:30N 29°41' W 094°59'2 3.3
2018-Jul-16 10:01N 29°40' W 094°58'1 2.9
2018-Jul-16 09:30N 29°41' W 094°59'2 4.2
2018-Jul-16 08:57N 29°42' W 095°01'0 0.0
2018-Jul-16 08:30N 29°42' W 095°01'0 0.0
2018-Jul-16 07:57N 29°42' W 095°01'0 0.0
2018-Jul-16 07:30N 29°42' W 095°01'0 0.0
2018-Jul-16 07:00N 29°42' W 095°01'0 0.0
2018-Jul-16 06:30N 29°42' W 095°01'0 0.0
2018-Jul-16 06:00N 29°42' W 095°01'0 0.0
2018-Jul-16 05:30N 29°42' W 095°01'0 0.0
2018-Jul-16 05:00N 29°42' W 095°01'0 0.0
2018-Jul-16 04:30N 29°42' W 095°01'0 0.0
2018-Jul-16 04:00N 29°42' W 095°01'0 0.0
2018-Jul-16 03:27N 29°42' W 095°01'0 0.0
2018-Jul-16 03:00N 29°42' W 095°01'0 0.0
2018-Jul-16 02:30N 29°42' W 095°01'0 0.0
2018-Jul-16 02:00N 29°42' W 095°01'0 0.0
2018-Jul-16 01:30N 29°42' W 095°01'0 0.0
2018-Jul-16 01:00N 29°42' W 095°01'0 0.0
2018-Jul-16 00:30N 29°42' W 095°01'0 0.0
2018-Jul-16 00:00N 29°42' W 095°01'0 0.0
2018-Jul-15 23:27N 29°42' W 095°01'0 0.0
2018-Jul-15 23:00N 29°42' W 095°01'0 0.0
2018-Jul-15 22:30N 29°42' W 095°01'0 0.0
2018-Jul-15 21:57N 29°42' W 095°01'0 0.0
2018-Jul-15 21:30N 29°42' W 095°01'0 0.0
2018-Jul-15 21:00N 29°42' W 095°01'0 0.0
2018-Jul-15 20:30N 29°42' W 095°01'0 0.0
2018-Jul-15 20:00N 29°42' W 095°01'0 0.0
2018-Jul-15 18:44N 29°42' W 095°01'0 0.0
2018-Jul-15 18:21N 29°42' W 095°01'0 0.0
2018-Jul-15 17:47N 29°42' W 095°01'0 0.0
2018-Jul-15 17:30N 29°42' W 095°01'0 0.0
2018-Jul-15 17:00N 29°42' W 095°01'0 0.1
2018-Jul-15 15:01N 29°42' W 095°01'0 3.2
2018-Jul-15 14:59N 29°42' W 095°01'0 0.1
2018-Jul-15 13:52N 29°42' W 095°01'0 0.0
2018-Jul-15 13:10N 29°42' W 095°01'0 0.0
2018-Jul-15 12:58N 29°42' W 095°01'2 3.6
2018-Jul-15 12:30N 29°42' W 094°59'1 2.2
2018-Jul-15 12:00N 29°41' W 095°00'1 0.5
2018-Jul-15 10:53N 29°41' W 094°60'0 0.0
2018-Jul-15 10:11N 29°41' W 094°60'0 0.7
2018-Jul-15 10:00N 29°41' W 094°60'7 0.8
2018-Jul-15 00:26N 29°44' W 095°07'2 4.2
2018-Jul-14 23:57N 29°45' W 095°06'3 5.5
2018-Jul-14 23:29N 29°44' W 095°03'3 5.8
2018-Jul-14 22:59N 29°42' W 095°01'2 4.1
2018-Jul-14 22:30N 29°41' W 094°59'0 0.5
2018-Jul-14 21:57N 29°41' W 094°59'0 0.0
2018-Jul-14 21:30N 29°41' W 094°59'0 0.4
2018-Jul-14 21:00N 29°41' W 094°59'8 3.5
2018-Jul-14 18:39N 29°44' W 095°08'0 1.6
2018-Jul-14 18:30N 29°44' W 095°07'3 6.2
2018-Jul-14 17:58N 29°45' W 095°04'3 2.2
2018-Jul-14 16:33N 29°42' W 095°01'0 0.8
2018-Jul-14 16:30N 29°42' W 095°01'510.3
2018-Jul-14 16:00N 29°38' W 094°58'2 2.2
2018-Jul-14 14:56N 29°37' W 095°00'1 2.8
2018-Jul-14 14:30N 29°37' W 095°01'1 1.1
2018-Jul-14 13:31N 29°37' W 095°00'0 0.0
2018-Jul-14 13:00N 29°37' W 095°00'0 0.0
2018-Jul-14 12:30N 29°37' W 095°00'0 0.0
2018-Jul-14 12:00N 29°37' W 095°00'0 0.0
2018-Jul-14 11:30N 29°37' W 095°00'0 0.0
2018-Jul-14 11:01N 29°37' W 095°00'0 0.4
2018-Jul-14 10:30N 29°37' W 095°00'1 1.5
2018-Jul-14 10:00N 29°37' W 095°01'2 3.4
2018-Jul-14 09:30N 29°37' W 094°59'1 1.6
2018-Jul-14 09:00N 29°37' W 095°00'0 0.0
2018-Jul-14 08:29N 29°37' W 095°00'0 0.0
2018-Jul-14 07:56N 29°37' W 095°00'0 0.0
2018-Jul-14 07:29N 29°37' W 095°00'0 0.0
2018-Jul-14 06:59N 29°37' W 095°00'2 4.9
2018-Jul-14 06:31N 29°37' W 094°58'2 4.7
2018-Jul-14 05:59N 29°37' W 095°00'1 2.0
2018-Jul-14 05:28N 29°37' W 095°02'0 0.0
2018-Jul-14 04:58N 29°37' W 095°02'0 0.0
2018-Jul-14 04:28N 29°37' W 095°02'0 0.0
2018-Jul-14 03:58N 29°37' W 095°02'0 0.1
2018-Jul-14 03:30N 29°37' W 095°02'0 0.0
2018-Jul-14 03:00N 29°37' W 095°02'1 2.2
2018-Jul-14 02:30N 29°37' W 095°00'3 6.2
2018-Jul-14 02:00N 29°36' W 094°57'1 2.2
2018-Jul-14 01:30N 29°35' W 094°56'3 5.0
2018-Jul-14 00:52N 29°37' W 094°59'1 2.2
2018-Jul-14 00:30N 29°37' W 095°00'0 0.0
2018-Jul-14 00:00N 29°37' W 095°00'0 0.0
2018-Jul-13 23:30N 29°37' W 095°00'0 0.0
2018-Jul-13 23:00N 29°37' W 095°00'0 0.0
2018-Jul-13 22:29N 29°37' W 095°00'0 0.5
2018-Jul-13 21:42N 29°37' W 095°01'0 0.0
2018-Jul-13 21:24N 29°37' W 095°01'0 0.0
2018-Jul-13 21:00N 29°37' W 095°01'0 0.0
2018-Jul-13 20:30N 29°37' W 095°01'0 0.0
2018-Jul-13 19:54N 29°37' W 095°01'0 0.0
2018-Jul-13 19:30N 29°37' W 095°01'0 0.4
2018-Jul-13 19:00N 29°37' W 095°00'0 0.1
2018-Jul-13 18:30N 29°37' W 095°00'1 1.4
2018-Jul-13 18:00N 29°37' W 095°01'1 1.3
2018-Jul-13 17:13N 29°37' W 094°60'1 4.7
2018-Jul-13 17:00N 29°37' W 095°01'0 0.0
2018-Jul-13 16:29N 29°37' W 095°01'0 0.2
2018-Jul-13 16:00N 29°37' W 095°01'0 0.6
2018-Jul-13 15:30N 29°37' W 095°01'0 0.5
2018-Jul-13 14:59N 29°37' W 095°01'0 0.0
2018-Jul-13 14:30N 29°37' W 095°01'0 0.3
2018-Jul-13 13:29N 29°37' W 095°01'0 0.0
2018-Jul-13 12:59N 29°37' W 095°01'0 0.0
2018-Jul-13 12:29N 29°37' W 095°01'0 0.0
2018-Jul-13 11:59N 29°37' W 095°01'0 0.0
2018-Jul-13 11:29N 29°37' W 095°01'0 0.0
2018-Jul-13 10:53N 29°37' W 095°01'0 0.0
2018-Jul-13 10:29N 29°37' W 095°01'0 0.7
2018-Jul-13 10:00N 29°37' W 095°01'0 0.3
2018-Jul-13 09:30N 29°37' W 095°01'1 1.5
2018-Jul-13 09:01N 29°37' W 095°01'2 4.4
2018-Jul-13 08:29N 29°37' W 094°59'5 9.6
2018-Jul-13 08:01N 29°34' W 094°55'4 8.0
2018-Jul-13 07:27N 29°37' W 094°59'3 5.4
2018-Jul-13 06:58N 29°37' W 095°02'0 0.0
2018-Jul-13 06:28N 29°37' W 095°02'0 0.0
2018-Jul-13 05:58N 29°37' W 095°02'0 0.0
2018-Jul-13 05:28N 29°37' W 095°02'0 0.0
2018-Jul-13 04:58N 29°37' W 095°02'0 0.0
2018-Jul-13 04:28N 29°37' W 095°02'0 0.0
2018-Jul-13 03:58N 29°37' W 095°02'0 0.0
2018-Jul-13 03:28N 29°37' W 095°02'0 0.0
2018-Jul-13 02:58N 29°37' W 095°02'0 0.0
2018-Jul-13 02:28N 29°37' W 095°02'0 0.0
2018-Jul-13 01:58N 29°37' W 095°02'0 0.1
2018-Jul-13 01:30N 29°37' W 095°02'4 6.9
2018-Jul-13 00:59N 29°39' W 094°58'3 5.3
2018-Jul-13 00:28N 29°41' W 094°60'0 0.2
2018-Jul-13 00:00N 29°41' W 094°60'1 2.5
2018-Jul-12 23:30N 29°40' W 094°59'1 2.3
2018-Jul-12 23:00N 29°41' W 094°60'0 0.0
2018-Jul-12 22:30N 29°41' W 094°60'0 0.0
2018-Jul-12 22:00N 29°41' W 094°60'0 0.0
2018-Jul-12 21:27N 29°41' W 094°60'0 0.5
2018-Jul-12 21:00N 29°41' W 094°59'1 2.2
2018-Jul-12 20:29N 29°41' W 095°01'1 2.1
2018-Jul-12 20:00N 29°42' W 094°60'1 0.5
2018-Jul-12 17:27N 29°42' W 095°01'2 2.3
2018-Jul-12 16:25N 29°44' W 095°03'3 7.9
2018-Jul-12 15:59N 29°42' W 094°60'1 0.8
2018-Jul-12 14:24N 29°41' W 095°00'0 0.2
2018-Jul-12 13:47N 29°41' W 095°00'1 2.0
2018-Jul-12 13:28N 29°41' W 094°60'0 0.0
2018-Jul-12 12:58N 29°41' W 094°60'0 0.0
2018-Jul-12 12:29N 29°41' W 094°60'0 0.4
2018-Jul-12 12:01N 29°41' W 094°60'0 0.1
2018-Jul-12 11:24N 29°41' W 094°60'0 0.0
2018-Jul-12 10:42N 29°41' W 094°60'1 4.4
2018-Jul-12 10:30N 29°41' W 094°59'4 7.1
2018-Jul-12 09:59N 29°37' W 094°59'1 1.6
2018-Jul-12 09:30N 29°37' W 095°00'0 0.1
2018-Jul-12 09:00N 29°37' W 095°00'1 2.2
2018-Jul-12 08:30N 29°37' W 095°01'1 1.9
2018-Jul-12 08:01N 29°37' W 095°00'1 2.3
2018-Jul-12 07:30N 29°37' W 095°02'0 0.0
2018-Jul-12 07:00N 29°37' W 095°02'0 0.0
2018-Jul-12 06:30N 29°37' W 095°02'0 0.0
2018-Jul-12 06:00N 29°37' W 095°02'0 0.0
2018-Jul-12 05:30N 29°37' W 095°02'0 0.0
2018-Jul-12 05:00N 29°37' W 095°02'0 0.0
2018-Jul-12 04:30N 29°37' W 095°02'0 0.0
2018-Jul-12 04:00N 29°37' W 095°02'0 0.0
2018-Jul-12 03:30N 29°37' W 095°02'0 0.0
2018-Jul-12 03:00N 29°37' W 095°02'0 0.0
2018-Jul-12 02:30N 29°37' W 095°02'0 0.0
2018-Jul-12 02:00N 29°37' W 095°02'0 0.5
2018-Jul-12 01:30N 29°37' W 095°01'1 2.9
2018-Jul-12 01:00N 29°37' W 094°60'1 1.4
2018-Jul-12 00:30N 29°37' W 095°01'0 0.0
2018-Jul-11 23:57N 29°37' W 095°01'0 0.0
2018-Jul-11 23:30N 29°37' W 095°01'0 0.0
2018-Jul-11 23:00N 29°37' W 095°01'0 0.0
2018-Jul-11 22:30N 29°37' W 095°01'0 0.0
2018-Jul-11 22:00N 29°37' W 095°01'0 0.0
2018-Jul-11 21:24N 29°37' W 095°01'0 0.0
2018-Jul-11 21:00N 29°37' W 095°01'0 0.0
2018-Jul-11 20:30N 29°37' W 095°01'0 0.0
2018-Jul-11 19:57N 29°37' W 095°01'0 0.0
2018-Jul-11 19:30N 29°37' W 095°01'3 5.5
2018-Jul-11 19:00N 29°37' W 094°58'3 5.3
2018-Jul-11 18:31N 29°37' W 095°01'0 0.2
2018-Jul-11 18:01N 29°37' W 095°01'2 4.8
2018-Jul-11 17:30N 29°37' W 094°58'4 7.3
2018-Jul-11 16:54N 29°41' W 094°60'1 2.1
2018-Jul-11 16:30N 29°41' W 095°01'1 1.6
2018-Jul-11 16:00N 29°41' W 094°60'0 0.7
2018-Jul-11 15:30N 29°41' W 094°59'3 6.2
2018-Jul-11 15:00N 29°38' W 094°58'3 3.9
2018-Jul-11 14:09N 29°41' W 095°00'0 0.2
2018-Jul-11 13:58N 29°41' W 095°00'1 3.0
2018-Jul-11 13:31N 29°41' W 094°59'4 7.7
2018-Jul-11 13:00N 29°37' W 094°58'2 4.6
2018-Jul-11 12:30N 29°37' W 095°00'0 0.0
2018-Jul-11 12:00N 29°37' W 095°00'0 0.0
2018-Jul-11 11:30N 29°37' W 095°00'1 2.2
2018-Jul-11 11:00N 29°37' W 094°59'1 2.4
2018-Jul-11 10:31N 29°37' W 095°00'0 0.4
2018-Jul-11 09:58N 29°37' W 095°00'0 0.0
2018-Jul-11 09:31N 29°37' W 095°00'0 0.0
2018-Jul-11 09:01N 29°37' W 095°00'0 0.0
2018-Jul-11 08:31N 29°37' W 095°00'0 0.0
2018-Jul-11 08:01N 29°37' W 095°00'0 0.0
2018-Jul-11 07:31N 29°37' W 095°00'0 0.0
2018-Jul-11 07:01N 29°37' W 095°00'0 0.0
2018-Jul-11 06:28N 29°37' W 095°00'0 0.0
2018-Jul-11 06:01N 29°37' W 095°00'0 0.1
2018-Jul-11 05:30N 29°37' W 095°00'2 4.6
2018-Jul-11 05:00N 29°37' W 094°57'2 4.9
2018-Jul-11 04:30N 29°37' W 095°00'0 0.0
2018-Jul-11 04:00N 29°37' W 095°00'0 0.0
2018-Jul-11 03:30N 29°37' W 095°00'0 0.4
2018-Jul-11 03:00N 29°37' W 094°60'0 0.0
2018-Jul-11 02:30N 29°37' W 094°60'0 0.0
2018-Jul-11 02:00N 29°37' W 094°60'0 0.0
2018-Jul-11 01:30N 29°37' W 094°60'2 4.3
2018-Jul-11 01:00N 29°37' W 094°58'6 3.5
2018-Jul-10 23:15N 29°42' W 095°01'5 1.1
2018-Jul-10 18:51N 29°46' W 095°05'2 5.5
2018-Jul-10 18:26N 29°44' W 095°03'2 5.1
2018-Jul-10 17:59N 29°43' W 095°01'3 6.8
2018-Jul-10 17:30N 29°40' W 094°59'1 0.7
2018-Jul-10 16:32N 29°41' W 094°59'0 0.0
2018-Jul-10 16:26N 29°41' W 094°59'0 0.0
2018-Jul-10 15:59N 29°41' W 094°59'0 0.0
2018-Jul-10 15:29N 29°41' W 094°59'0 0.0
2018-Jul-10 14:32N 29°41' W 094°59'0 0.0
2018-Jul-10 14:14N 29°41' W 094°59'0 1.8
2018-Jul-10 14:00N 29°41' W 094°59'3 5.7
2018-Jul-10 13:29N 29°43' W 095°01'3 5.6
2018-Jul-10 12:57N 29°45' W 095°04'3 1.5
2018-Jul-10 10:48N 29°44' W 095°08'1 0.9
2018-Jul-10 09:46N 29°45' W 095°07'2 7.6
2018-Jul-10 09:30N 29°46' W 095°05'4 7.9
2018-Jul-10 09:00N 29°43' W 095°01'0 0.9
2018-Jul-10 08:26N 29°44' W 095°01'1 3.3
2018-Jul-10 08:00N 29°42' W 095°01'0 0.0
2018-Jul-10 07:30N 29°42' W 095°01'0 0.0
2018-Jul-10 06:57N 29°42' W 095°01'0 0.0
2018-Jul-10 06:30N 29°42' W 095°01'0 0.0
2018-Jul-10 06:00N 29°42' W 095°01'0 0.0
2018-Jul-10 05:29N 29°42' W 095°01'0 0.2
2018-Jul-10 04:08N 29°42' W 095°01'0 0.9
2018-Jul-10 03:54N 29°42' W 095°01'1 2.0
2018-Jul-10 03:28N 29°42' W 095°00'1 3.0
2018-Jul-10 03:00N 29°41' W 094°59'1 2.5
2018-Jul-10 02:30N 29°41' W 095°01'0 0.1
2018-Jul-10 02:00N 29°41' W 095°01'1 2.9
2018-Jul-10 01:30N 29°41' W 094°59'2 4.1
2018-Jul-10 00:55N 29°42' W 095°01'  
Track history (hours):
 
Tides and Currents Weather Stations Pressure Air Temp Water Temp Dewpoint Dewpoint Depression Visibility Wind Speed Wind Dir Waves Ship Positions

Lamar

Owner: G & H Towing Company, Galveston, TX. More information available from US FCC via Universal Licensing System and Coast Guard Vessel Documentation Center.

Last reported at 2018-Jul-19 22:59 UTC. Time now 2018-Jul-19 23:05 UTC.
Position N 29°37' W 095°00'.

Length 30 m; draft 6.5 m.

Type: Tug. MMSI: 367388340.

Date/timePositionNaut miles runAvg speedWind from/ knotsBaromVisibWave heightAir tempDewpointWater temp
2018-Jul-19 22:59N 29°37' W 095°00'3 6.4
2018-Jul-19 22:30N 29°40' W 094°58'4 0.7
2018-Jul-19 17:33N 29°42' W 095°01'0 5.4
2018-Jul-19 17:30N 29°42' W 095°01'2 2.5
2018-Jul-19 16:42N 29°44' W 095°03'2 7.1
2018-Jul-19 16:28N 29°43' W 095°01'1 0.8
2018-Jul-19 15:33N 29°42' W 095°01'0 3.5
2018-Jul-19 15:30N 29°42' W 095°01'2 2.9
2018-Jul-19 14:59N 29°41' W 095°00'1 0.6
2018-Jul-19 14:00N 29°41' W 094°60'1 2.8
2018-Jul-19 13:29N 29°40' W 094°58'1 2.3
2018-Jul-19 12:58N 29°41' W 094°59'0 0.0
2018-Jul-19 12:19N 29°41' W 094°59'0 0.0
2018-Jul-19 11:43N 29°41' W 094°59'0 0.0
2018-Jul-19 11:25N 29°41' W 094°59'0 0.0
2018-Jul-19 10:58N 29°41' W 094°59'0 0.0
2018-Jul-19 10:16N 29°41' W 094°59'0 0.0
2018-Jul-19 09:58N 29°41' W 094°59'0 0.0
2018-Jul-19 09:28N 29°41' W 094°59'0 0.0
2018-Jul-19 08:58N 29°41' W 094°59'0 0.0
2018-Jul-19 08:25N 29°41' W 094°59'0 0.0
2018-Jul-19 07:58N 29°41' W 094°59'0 0.0
2018-Jul-19 07:28N 29°41' W 094°59'0 0.0
2018-Jul-19 06:43N 29°41' W 094°59'0 0.0
2018-Jul-19 06:25N 29°41' W 094°59'0 0.0
2018-Jul-19 05:55N 29°41' W 094°59'0 0.0
2018-Jul-19 05:28N 29°41' W 094°59'0 0.0
2018-Jul-19 05:00N 29°41' W 094°59'0 0.6
2018-Jul-19 04:31N 29°41' W 094°59'0 0.4
2018-Jul-19 04:00N 29°41' W 094°59'2 4.3
2018-Jul-19 03:30N 29°39' W 094°58'2 3.6
2018-Jul-19 02:55N 29°41' W 094°60'0 0.0
2018-Jul-19 02:25N 29°41' W 094°60'0 0.0
2018-Jul-19 01:58N 29°41' W 094°60'0 0.0
2018-Jul-19 01:28N 29°41' W 094°60'0 0.0
2018-Jul-19 00:58N 29°41' W 094°60'0 0.0
2018-Jul-19 00:28N 29°41' W 094°60'0 0.0
2018-Jul-18 23:38N 29°41' W 094°60'0 1.2
2018-Jul-18 23:27N 29°41' W 094°60'0 0.3
2018-Jul-18 22:59N 29°41' W 094°60'1 2.4
2018-Jul-18 22:30N 29°40' W 094°59'1 0.5
2018-Jul-18 20:50N 29°41' W 094°59'2 4.4
2018-Jul-18 20:25N 29°42' W 095°01'2 5.5
2018-Jul-18 19:59N 29°44' W 095°03'4 3.7
2018-Jul-18 18:49N 29°44' W 095°08'0 0.1
2018-Jul-18 17:32N 29°44' W 095°07'0 8.7
2018-Jul-18 17:29N 29°44' W 095°07'3 5.7
2018-Jul-18 16:57N 29°44' W 095°03'3 7.1
2018-Jul-18 16:30N 29°42' W 095°01'2 0.8
2018-Jul-18 14:12N 29°41' W 094°59'2 3.0
2018-Jul-18 13:29N 29°42' W 095°01'2 3.8
2018-Jul-18 12:55N 29°41' W 094°59'0 0.0
2018-Jul-18 12:04N 29°41' W 094°59'0 0.0
2018-Jul-18 11:43N 29°41' W 094°59'0 0.0
2018-Jul-18 11:28N 29°41' W 094°59'0 0.0
2018-Jul-18 10:13N 29°41' W 094°59'0 0.0
2018-Jul-18 09:52N 29°41' W 094°59'0 0.0
2018-Jul-18 09:25N 29°41' W 094°59'0 0.0
2018-Jul-18 08:49N 29°41' W 094°59'0 0.0
2018-Jul-18 08:28N 29°41' W 094°59'0 0.0
2018-Jul-18 07:58N 29°41' W 094°59'0 0.2
2018-Jul-18 07:30N 29°41' W 094°59'1 1.9
2018-Jul-18 07:01N 29°41' W 095°00'1 2.2
2018-Jul-18 06:30N 29°42' W 095°00'1 1.8
2018-Jul-18 06:00N 29°42' W 095°01'0 0.0
2018-Jul-18 05:30N 29°42' W 095°01'0 0.0
2018-Jul-18 05:00N 29°42' W 095°01'0 0.0
2018-Jul-18 04:30N 29°42' W 095°01'0 0.0
2018-Jul-18 04:00N 29°42' W 095°01'0 0.0
2018-Jul-18 03:30N 29°42' W 095°01'0 0.0
2018-Jul-18 03:00N 29°42' W 095°01'0 0.0
2018-Jul-18 02:27N 29°42' W 095°01'0 0.0
2018-Jul-18 01:54N 29°42' W 095°01'0 0.0
2018-Jul-18 01:30N 29°42' W 095°01'2 2.1
2018-Jul-18 00:24N 29°44' W 095°03'3 7.3
2018-Jul-18 00:00N 29°42' W 095°01'1 2.6
2018-Jul-17 23:30N 29°41' W 094°60'0 0.1
2018-Jul-17 23:00N 29°41' W 094°60'0 0.0
2018-Jul-17 22:30N 29°41' W 094°60'5 6.5
2018-Jul-17 21:44N 29°45' W 095°04'3 0.8
2018-Jul-17 17:24N 29°44' W 095°07'1 3.4
2018-Jul-17 17:00N 29°45' W 095°06'2 4.0
2018-Jul-17 16:26N 29°44' W 095°03'2 5.5
2018-Jul-17 15:59N 29°43' W 095°01'3 6.8
2018-Jul-17 15:30N 29°41' W 094°59'3 4.3
2018-Jul-17 14:53N 29°42' W 095°01'0 0.1
2018-Jul-17 14:26N 29°42' W 095°01'0 0.0
2018-Jul-17 13:59N 29°42' W 095°01'0 0.0
2018-Jul-17 13:26N 29°42' W 095°01'0 0.0
2018-Jul-17 12:59N 29°42' W 095°01'0 0.0
2018-Jul-17 12:26N 29°42' W 095°01'0 0.0
2018-Jul-17 11:56N 29°42' W 095°01'0 0.0
2018-Jul-17 11:29N 29°42' W 095°01'0 0.0
2018-Jul-17 10:59N 29°42' W 095°01'0 0.0
2018-Jul-17 10:29N 29°42' W 095°01'0 0.0
2018-Jul-17 09:59N 29°42' W 095°01'0 0.0
2018-Jul-17 09:26N 29°42' W 095°01'0 0.0
2018-Jul-17 08:59N 29°42' W 095°01'0 0.0
2018-Jul-17 08:29N 29°42' W 095°01'0 0.0
2018-Jul-17 07:59N 29°42' W 095°01'0 0.0
2018-Jul-17 07:29N 29°42' W 095°01'0 0.0
2018-Jul-17 06:59N 29°42' W 095°01'0 0.0
2018-Jul-17 06:29N 29°42' W 095°01'0 0.0
2018-Jul-17 05:56N 29°42' W 095°01'0 0.0
2018-Jul-17 05:29N 29°42' W 095°01'0 0.0
2018-Jul-17 04:58N 29°42' W 095°01'2 5.2
2018-Jul-17 04:30N 29°41' W 094°59'1 2.7
2018-Jul-17 04:00N 29°41' W 095°00'1 1.8
2018-Jul-17 03:30N 29°41' W 094°59'0 0.7
2018-Jul-17 03:01N 29°41' W 094°59'1 1.3
2018-Jul-17 02:28N 29°40' W 094°59'1 1.3
2018-Jul-17 01:59N 29°41' W 094°59'0 0.0
2018-Jul-17 01:26N 29°41' W 094°59'0 0.0
2018-Jul-17 00:20N 29°41' W 094°59'0 0.0
2018-Jul-16 23:14N 29°41' W 094°59'0 0.0
2018-Jul-16 22:53N 29°41' W 094°59'0 0.0
2018-Jul-16 22:26N 29°41' W 094°59'0 0.0
2018-Jul-16 21:59N 29°41' W 094°59'3 1.4
2018-Jul-16 20:07N 29°43' W 095°01'1 5.3
2018-Jul-16 20:01N 29°42' W 095°01'0 0.2
2018-Jul-16 19:25N 29°42' W 095°01'0 0.0
2018-Jul-16 18:58N 29°42' W 095°01'0 0.1
2018-Jul-16 18:30N 29°42' W 095°01'5 1.3
2018-Jul-16 14:43N 29°45' W 095°06'2 7.2
2018-Jul-16 14:23N 29°44' W 095°03'3 7.9
2018-Jul-16 14:00N 29°42' W 095°01'1 2.4
2018-Jul-16 13:26N 29°41' W 095°00'0 0.1
2018-Jul-16 13:00N 29°41' W 095°00'1 2.8
2018-Jul-16 12:30N 29°41' W 094°59'1 2.0
2018-Jul-16 12:00N 29°41' W 094°60'0 0.0
2018-Jul-16 11:24N 29°41' W 094°60'0 0.1
2018-Jul-16 10:59N 29°41' W 094°60'1 1.2
2018-Jul-16 10:30N 29°41' W 094°59'2 3.3
2018-Jul-16 10:01N 29°40' W 094°58'1 2.9
2018-Jul-16 09:30N 29°41' W 094°59'2 4.2
2018-Jul-16 08:57N 29°42' W 095°01'0 0.0
2018-Jul-16 08:30N 29°42' W 095°01'0 0.0
2018-Jul-16 07:57N 29°42' W 095°01'0 0.0
2018-Jul-16 07:30N 29°42' W 095°01'0 0.0
2018-Jul-16 07:00N 29°42' W 095°01'0 0.0
2018-Jul-16 06:30N 29°42' W 095°01'0 0.0
2018-Jul-16 06:00N 29°42' W 095°01'0 0.0
2018-Jul-16 05:30N 29°42' W 095°01'0 0.0
2018-Jul-16 05:00N 29°42' W 095°01'0 0.0
2018-Jul-16 04:30N 29°42' W 095°01'0 0.0
2018-Jul-16 04:00N 29°42' W 095°01'0 0.0
2018-Jul-16 03:27N 29°42' W 095°01'0 0.0
2018-Jul-16 03:00N 29°42' W 095°01'0 0.0
2018-Jul-16 02:30N 29°42' W 095°01'0 0.0
2018-Jul-16 02:00N 29°42' W 095°01'0 0.0
2018-Jul-16 01:30N 29°42' W 095°01'0 0.0
2018-Jul-16 01:00N 29°42' W 095°01'0 0.0
2018-Jul-16 00:30N 29°42' W 095°01'0 0.0
2018-Jul-16 00:00N 29°42' W 095°01'0 0.0
2018-Jul-15 23:27N 29°42' W 095°01'0 0.0
2018-Jul-15 23:00N 29°42' W 095°01'0 0.0
2018-Jul-15 22:30N 29°42' W 095°01'0 0.0
2018-Jul-15 21:57N 29°42' W 095°01'0 0.0
2018-Jul-15 21:30N 29°42' W 095°01'0 0.0
2018-Jul-15 21:00N 29°42' W 095°01'0 0.0
2018-Jul-15 20:30N 29°42' W 095°01'0 0.0
2018-Jul-15 20:00N 29°42' W 095°01'0 0.0
2018-Jul-15 18:44N 29°42' W 095°01'0 0.0
2018-Jul-15 18:21N 29°42' W 095°01'0 0.0
2018-Jul-15 17:47N 29°42' W 095°01'0 0.0
2018-Jul-15 17:30N 29°42' W 095°01'0 0.0
2018-Jul-15 17:00N 29°42' W 095°01'0 0.1
2018-Jul-15 15:01N 29°42' W 095°01'0 3.2
2018-Jul-15 14:59N 29°42' W 095°01'0 0.1
2018-Jul-15 13:52N 29°42' W 095°01'0 0.0
2018-Jul-15 13:10N 29°42' W 095°01'0 0.0
2018-Jul-15 12:58N 29°42' W 095°01'2 3.6
2018-Jul-15 12:30N 29°42' W 094°59'1 2.2
2018-Jul-15 12:00N 29°41' W 095°00'1 0.5
2018-Jul-15 10:53N 29°41' W 094°60'0 0.0
2018-Jul-15 10:11N 29°41' W 094°60'0 0.7
2018-Jul-15 10:00N 29°41' W 094°60'7 0.8
2018-Jul-15 00:26N 29°44' W 095°07'2 4.2
2018-Jul-14 23:57N 29°45' W 095°06'3 5.5
2018-Jul-14 23:29N 29°44' W 095°03'3 5.8
2018-Jul-14 22:59N 29°42' W 095°01'2 4.1
2018-Jul-14 22:30N 29°41' W 094°59'0 0.5
2018-Jul-14 21:57N 29°41' W 094°59'0 0.0
2018-Jul-14 21:30N 29°41' W 094°59'0 0.4
2018-Jul-14 21:00N 29°41' W 094°59'8 3.5
2018-Jul-14 18:39N 29°44' W 095°08'0 1.6
2018-Jul-14 18:30N 29°44' W 095°07'3 6.2
2018-Jul-14 17:58N 29°45' W 095°04'3 2.2
2018-Jul-14 16:33N 29°42' W 095°01'0 0.8
2018-Jul-14 16:30N 29°42' W 095°01'510.3
2018-Jul-14 16:00N 29°38' W 094°58'2 2.2
2018-Jul-14 14:56N 29°37' W 095°00'1 2.8
2018-Jul-14 14:30N 29°37' W 095°01'1 1.1
2018-Jul-14 13:31N 29°37' W 095°00'0 0.0
2018-Jul-14 13:00N 29°37' W 095°00'0 0.0
2018-Jul-14 12:30N 29°37' W 095°00'0 0.0
2018-Jul-14 12:00N 29°37' W 095°00'0 0.0
2018-Jul-14 11:30N 29°37' W 095°00'0 0.0
2018-Jul-14 11:01N 29°37' W 095°00'0 0.4
2018-Jul-14 10:30N 29°37' W 095°00'1 1.5
2018-Jul-14 10:00N 29°37' W 095°01'2 3.4
2018-Jul-14 09:30N 29°37' W 094°59'1 1.6
2018-Jul-14 09:00N 29°37' W 095°00'0 0.0
2018-Jul-14 08:29N 29°37' W 095°00'0 0.0
2018-Jul-14 07:56N 29°37' W 095°00'0 0.0
2018-Jul-14 07:29N 29°37' W 095°00'0 0.0
2018-Jul-14 06:59N 29°37' W 095°00'2 4.9
2018-Jul-14 06:31N 29°37' W 094°58'2 4.7
2018-Jul-14 05:59N 29°37' W 095°00'1 2.0
2018-Jul-14 05:28N 29°37' W 095°02'0 0.0
2018-Jul-14 04:58N 29°37' W 095°02'0 0.0
2018-Jul-14 04:28N 29°37' W 095°02'0 0.0
2018-Jul-14 03:58N 29°37' W 095°02'0 0.1
2018-Jul-14 03:30N 29°37' W 095°02'0 0.0
2018-Jul-14 03:00N 29°37' W 095°02'1 2.2
2018-Jul-14 02:30N 29°37' W 095°00'3 6.2
2018-Jul-14 02:00N 29°36' W 094°57'1 2.2
2018-Jul-14 01:30N 29°35' W 094°56'3 5.0
2018-Jul-14 00:52N 29°37' W 094°59'1 2.2
2018-Jul-14 00:30N 29°37' W 095°00'0 0.0
2018-Jul-14 00:00N 29°37' W 095°00'0 0.0
2018-Jul-13 23:30N 29°37' W 095°00'0 0.0
2018-Jul-13 23:00N 29°37' W 095°00'0 0.0
2018-Jul-13 22:29N 29°37' W 095°00'0 0.5
2018-Jul-13 21:42N 29°37' W 095°01'0 0.0
2018-Jul-13 21:24N 29°37' W 095°01'0 0.0
2018-Jul-13 21:00N 29°37' W 095°01'0 0.0
2018-Jul-13 20:30N 29°37' W 095°01'0 0.0
2018-Jul-13 19:54N 29°37' W 095°01'0 0.0
2018-Jul-13 19:30N 29°37' W 095°01'0 0.4
2018-Jul-13 19:00N 29°37' W 095°00'0 0.1
2018-Jul-13 18:30N 29°37' W 095°00'1 1.4
2018-Jul-13 18:00N 29°37' W 095°01'1 1.3
2018-Jul-13 17:13N 29°37' W 094°60'1 4.7
2018-Jul-13 17:00N 29°37' W 095°01'0 0.0
2018-Jul-13 16:29N 29°37' W 095°01'0 0.2
2018-Jul-13 16:00N 29°37' W 095°01'0 0.6
2018-Jul-13 15:30N 29°37' W 095°01'0 0.5
2018-Jul-13 14:59N 29°37' W 095°01'0 0.0
2018-Jul-13 14:30N 29°37' W 095°01'0 0.3
2018-Jul-13 13:29N 29°37' W 095°01'0 0.0
2018-Jul-13 12:59N 29°37' W 095°01'0 0.0
2018-Jul-13 12:29N 29°37' W 095°01'0 0.0
2018-Jul-13 11:59N 29°37' W 095°01'0 0.0
2018-Jul-13 11:29N 29°37' W 095°01'0 0.0
2018-Jul-13 10:53N 29°37' W 095°01'0 0.0
2018-Jul-13 10:29N 29°37' W 095°01'0 0.7
2018-Jul-13 10:00N 29°37' W 095°01'0 0.3
2018-Jul-13 09:30N 29°37' W 095°01'1 1.5
2018-Jul-13 09:01N 29°37' W 095°01'2 4.4
2018-Jul-13 08:29N 29°37' W 094°59'5 9.6
2018-Jul-13 08:01N 29°34' W 094°55'4 8.0
2018-Jul-13 07:27N 29°37' W 094°59'3 5.4
2018-Jul-13 06:58N 29°37' W 095°02'0 0.0
2018-Jul-13 06:28N 29°37' W 095°02'0 0.0
2018-Jul-13 05:58N 29°37' W 095°02'0 0.0
2018-Jul-13 05:28N 29°37' W 095°02'0 0.0
2018-Jul-13 04:58N 29°37' W 095°02'0 0.0
2018-Jul-13 04:28N 29°37' W 095°02'0 0.0
2018-Jul-13 03:58N 29°37' W 095°02'0 0.0
2018-Jul-13 03:28N 29°37' W 095°02'0 0.0
2018-Jul-13 02:58N 29°37' W 095°02'0 0.0
2018-Jul-13 02:28N 29°37' W 095°02'0 0.0
2018-Jul-13 01:58N 29°37' W 095°02'0 0.1
2018-Jul-13 01:30N 29°37' W 095°02'4 6.9
2018-Jul-13 00:59N 29°39' W 094°58'3 5.3
2018-Jul-13 00:28N 29°41' W 094°60'0 0.2
2018-Jul-13 00:00N 29°41' W 094°60'1 2.5
2018-Jul-12 23:30N 29°40' W 094°59'1 2.3
2018-Jul-12 23:00N 29°41' W 094°60'0 0.0
2018-Jul-12 22:30N 29°41' W 094°60'0 0.0
2018-Jul-12 22:00N 29°41' W 094°60'0 0.0
2018-Jul-12 21:27N 29°41' W 094°60'0 0.5
2018-Jul-12 21:00N 29°41' W 094°59'1 2.2
2018-Jul-12 20:29N 29°41' W 095°01'1 2.1
2018-Jul-12 20:00N 29°42' W 094°60'1 0.5
2018-Jul-12 17:27N 29°42' W 095°01'2 2.3
2018-Jul-12 16:25N 29°44' W 095°03'3 7.9
2018-Jul-12 15:59N 29°42' W 094°60'1 0.8
2018-Jul-12 14:24N 29°41' W 095°00'0 0.2
2018-Jul-12 13:47N 29°41' W 095°00'1 2.0
2018-Jul-12 13:28N 29°41' W 094°60'0 0.0
2018-Jul-12 12:58N 29°41' W 094°60'0 0.0
2018-Jul-12 12:29N 29°41' W 094°60'0 0.4
2018-Jul-12 12:01N 29°41' W 094°60'0 0.1
2018-Jul-12 11:24N 29°41' W 094°60'0 0.0
2018-Jul-12 10:42N 29°41' W 094°60'1 4.4
2018-Jul-12 10:30N 29°41' W 094°59'4 7.1
2018-Jul-12 09:59N 29°37' W 094°59'1 1.6
2018-Jul-12 09:30N 29°37' W 095°00'0 0.1
2018-Jul-12 09:00N 29°37' W 095°00'1 2.2
2018-Jul-12 08:30N 29°37' W 095°01'1 1.9
2018-Jul-12 08:01N 29°37' W 095°00'1 2.3
2018-Jul-12 07:30N 29°37' W 095°02'0 0.0
2018-Jul-12 07:00N 29°37' W 095°02'0 0.0
2018-Jul-12 06:30N 29°37' W 095°02'0 0.0
2018-Jul-12 06:00N 29°37' W 095°02'0 0.0
2018-Jul-12 05:30N 29°37' W 095°02'0 0.0
2018-Jul-12 05:00N 29°37' W 095°02'0 0.0
2018-Jul-12 04:30N 29°37' W 095°02'0 0.0
2018-Jul-12 04:00N 29°37' W 095°02'0 0.0
2018-Jul-12 03:30N 29°37' W 095°02'0 0.0
2018-Jul-12 03:00N 29°37' W 095°02'0 0.0
2018-Jul-12 02:30N 29°37' W 095°02'0 0.0
2018-Jul-12 02:00N 29°37' W 095°02'0 0.5
2018-Jul-12 01:30N 29°37' W 095°01'1 2.9
2018-Jul-12 01:00N 29°37' W 094°60'1 1.4
2018-Jul-12 00:30N 29°37' W 095°01'0 0.0
2018-Jul-11 23:57N 29°37' W 095°01'0 0.0
2018-Jul-11 23:30N 29°37' W 095°01'0 0.0
2018-Jul-11 23:00N 29°37' W 095°01'0 0.0
2018-Jul-11 22:30N 29°37' W 095°01'0 0.0
2018-Jul-11 22:00N 29°37' W 095°01'0 0.0
2018-Jul-11 21:24N 29°37' W 095°01'0 0.0
2018-Jul-11 21:00N 29°37' W 095°01'0 0.0
2018-Jul-11 20:30N 29°37' W 095°01'0 0.0
2018-Jul-11 19:57N 29°37' W 095°01'0 0.0
2018-Jul-11 19:30N 29°37' W 095°01'3 5.5
2018-Jul-11 19:00N 29°37' W 094°58'3 5.3
2018-Jul-11 18:31N 29°37' W 095°01'0 0.2
2018-Jul-11 18:01N 29°37' W 095°01'2 4.8
2018-Jul-11 17:30N 29°37' W 094°58'4 7.3
2018-Jul-11 16:54N 29°41' W 094°60'1 2.1
2018-Jul-11 16:30N 29°41' W 095°01'1 1.6
2018-Jul-11 16:00N 29°41' W 094°60'0 0.7
2018-Jul-11 15:30N 29°41' W 094°59'3 6.2
2018-Jul-11 15:00N 29°38' W 094°58'3 3.9
2018-Jul-11 14:09N 29°41' W 095°00'0 0.2
2018-Jul-11 13:58N 29°41' W 095°00'1 3.0
2018-Jul-11 13:31N 29°41' W 094°59'4 7.7
2018-Jul-11 13:00N 29°37' W 094°58'2 4.6
2018-Jul-11 12:30N 29°37' W 095°00'0 0.0
2018-Jul-11 12:00N 29°37' W 095°00'0 0.0
2018-Jul-11 11:30N 29°37' W 095°00'1 2.2
2018-Jul-11 11:00N 29°37' W 094°59'1 2.4
2018-Jul-11 10:31N 29°37' W 095°00'0 0.4
2018-Jul-11 09:58N 29°37' W 095°00'0 0.0
2018-Jul-11 09:31N 29°37' W 095°00'0 0.0
2018-Jul-11 09:01N 29°37' W 095°00'0 0.0
2018-Jul-11 08:31N 29°37' W 095°00'0 0.0
2018-Jul-11 08:01N 29°37' W 095°00'0 0.0
2018-Jul-11 07:31N 29°37' W 095°00'0 0.0
2018-Jul-11 07:01N 29°37' W 095°00'0 0.0
2018-Jul-11 06:28N 29°37' W 095°00'0 0.0
2018-Jul-11 06:01N 29°37' W 095°00'0 0.1
2018-Jul-11 05:30N 29°37' W 095°00'2 4.6
2018-Jul-11 05:00N 29°37' W 094°57'2 4.9
2018-Jul-11 04:30N 29°37' W 095°00'0 0.0
2018-Jul-11 04:00N 29°37' W 095°00'0 0.0
2018-Jul-11 03:30N 29°37' W 095°00'0 0.4
2018-Jul-11 03:00N 29°37' W 094°60'0 0.0
2018-Jul-11 02:30N 29°37' W 094°60'0 0.0
2018-Jul-11 02:00N 29°37' W 094°60'0 0.0
2018-Jul-11 01:30N 29°37' W 094°60'2 4.3
2018-Jul-11 01:00N 29°37' W 094°58'6 3.5
2018-Jul-10 23:15N 29°42' W 095°01'5 1.1
2018-Jul-10 18:51N 29°46' W 095°05'2 5.5
2018-Jul-10 18:26N 29°44' W 095°03'2 5.1
2018-Jul-10 17:59N 29°43' W 095°01'3 6.8
2018-Jul-10 17:30N 29°40' W 094°59'1 0.7
2018-Jul-10 16:32N 29°41' W 094°59'0 0.0
2018-Jul-10 16:26N 29°41' W 094°59'0 0.0
2018-Jul-10 15:59N 29°41' W 094°59'0 0.0
2018-Jul-10 15:29N 29°41' W 094°59'0 0.0
2018-Jul-10 14:32N 29°41' W 094°59'0 0.0
2018-Jul-10 14:14N 29°41' W 094°59'0 1.8
2018-Jul-10 14:00N 29°41' W 094°59'3 5.7
2018-Jul-10 13:29N 29°43' W 095°01'3 5.6
2018-Jul-10 12:57N 29°45' W 095°04'3 1.5
2018-Jul-10 10:48N 29°44' W 095°08'1 0.9
2018-Jul-10 09:46N 29°45' W 095°07'2 7.6
2018-Jul-10 09:30N 29°46' W 095°05'4 7.9
2018-Jul-10 09:00N 29°43' W 095°01'0 0.9
2018-Jul-10 08:26N 29°44' W 095°01'1 3.3
2018-Jul-10 08:00N 29°42' W 095°01'0 0.0
2018-Jul-10 07:30N 29°42' W 095°01'0 0.0
2018-Jul-10 06:57N 29°42' W 095°01'0 0.0
2018-Jul-10 06:30N 29°42' W 095°01'0 0.0
2018-Jul-10 06:00N 29°42' W 095°01'0 0.0
2018-Jul-10 05:29N 29°42' W 095°01'0 0.2
2018-Jul-10 04:08N 29°42' W 095°01'0 0.9
2018-Jul-10 03:54N 29°42' W 095°01'1 2.0
2018-Jul-10 03:28N 29°42' W 095°00'1 3.0
2018-Jul-10 03:00N 29°41' W 094°59'1 2.5
2018-Jul-10 02:30N 29°41' W 095°01'0 0.1
2018-Jul-10 02:00N 29°41' W 095°01'1 2.9
2018-Jul-10 01:30N 29°41' W 094°59'2 4.1
2018-Jul-10 00:55N 29°42' W 095°01'  

Dump ship's entire track history